sensor_id;sensor_type;location;lat;lon;timestamp;P1;durP1;ratioP1;P2;durP2;ratioP2
41881;SDS011;27562;47.524;12.404;2022-10-04T00:03:51;5.10;;;3.13;;
41881;SDS011;27562;47.524;12.404;2022-10-04T00:06:27;7.35;;;3.50;;
41881;SDS011;27562;47.524;12.404;2022-10-04T00:09:00;6.40;;;3.25;;
41881;SDS011;27562;47.524;12.404;2022-10-04T00:11:37;7.35;;;3.45;;
41881;SDS011;27562;47.524;12.404;2022-10-04T00:14:18;9.23;;;3.90;;
41881;SDS011;27562;47.524;12.404;2022-10-04T00:16:44;6.70;;;3.55;;
41881;SDS011;27562;47.524;12.404;2022-10-04T00:29:32;8.57;;;3.63;;
41881;SDS011;27562;47.524;12.404;2022-10-04T00:36:59;13.63;;;4.68;;
41881;SDS011;27562;47.524;12.404;2022-10-04T00:44:47;8.30;;;4.38;;
41881;SDS011;27562;47.524;12.404;2022-10-04T00:47:52;10.57;;;3.90;;
41881;SDS011;27562;47.524;12.404;2022-10-04T00:50:40;6.43;;;3.70;;
41881;SDS011;27562;47.524;12.404;2022-10-04T00:56:27;10.18;;;4.05;;
41881;SDS011;27562;47.524;12.404;2022-10-04T01:01:46;6.65;;;3.90;;
41881;SDS011;27562;47.524;12.404;2022-10-04T01:04:27;8.55;;;4.28;;
41881;SDS011;27562;47.524;12.404;2022-10-04T01:07:05;5.70;;;3.40;;
41881;SDS011;27562;47.524;12.404;2022-10-04T01:09:32;6.78;;;4.00;;
41881;SDS011;27562;47.524;12.404;2022-10-04T01:12:10;7.57;;;4.05;;
41881;SDS011;27562;47.524;12.404;2022-10-04T01:17:19;6.78;;;4.30;;
41881;SDS011;27562;47.524;12.404;2022-10-04T01:19:52;9.00;;;4.22;;
41881;SDS011;27562;47.524;12.404;2022-10-04T01:22:28;5.93;;;3.80;;
41881;SDS011;27562;47.524;12.404;2022-10-04T01:25:01;9.00;;;4.45;;
41881;SDS011;27562;47.524;12.404;2022-10-04T01:30:06;6.63;;;3.58;;
41881;SDS011;27562;47.524;12.404;2022-10-04T01:32:40;7.80;;;3.92;;
41881;SDS011;27562;47.524;12.404;2022-10-04T01:35:07;8.73;;;4.05;;
41881;SDS011;27562;47.524;12.404;2022-10-04T01:37:35;6.95;;;3.80;;
41881;SDS011;27562;47.524;12.404;2022-10-04T01:40:03;6.75;;;4.25;;
41881;SDS011;27562;47.524;12.404;2022-10-04T01:42:31;8.07;;;4.13;;
41881;SDS011;27562;47.524;12.404;2022-10-04T01:47:39;6.43;;;3.75;;
41881;SDS011;27562;47.524;12.404;2022-10-04T01:50:10;7.60;;;4.20;;
41881;SDS011;27562;47.524;12.404;2022-10-04T01:52:45;9.43;;;5.00;;
41881;SDS011;27562;47.524;12.404;2022-10-04T01:55:16;6.55;;;4.20;;
41881;SDS011;27562;47.524;12.404;2022-10-04T01:57:51;5.88;;;3.85;;
41881;SDS011;27562;47.524;12.404;2022-10-04T02:00:22;6.75;;;4.05;;
41881;SDS011;27562;47.524;12.404;2022-10-04T02:02:59;6.10;;;3.60;;
41881;SDS011;27562;47.524;12.404;2022-10-04T02:05:33;8.02;;;4.13;;
41881;SDS011;27562;47.524;12.404;2022-10-04T02:08:07;6.47;;;3.88;;
41881;SDS011;27562;47.524;12.404;2022-10-04T02:10:40;12.07;;;4.03;;
41881;SDS011;27562;47.524;12.404;2022-10-04T02:13:10;7.88;;;3.88;;
41881;SDS011;27562;47.524;12.404;2022-10-04T02:15:39;8.07;;;4.28;;
41881;SDS011;27562;47.524;12.404;2022-10-04T02:18:09;7.88;;;4.13;;
41881;SDS011;27562;47.524;12.404;2022-10-04T02:20:37;6.72;;;3.80;;
41881;SDS011;27562;47.524;12.404;2022-10-04T02:23:04;6.78;;;4.53;;
41881;SDS011;27562;47.524;12.404;2022-10-04T02:25:30;6.57;;;3.88;;
41881;SDS011;27562;47.524;12.404;2022-10-04T02:27:56;6.63;;;4.43;;
41881;SDS011;27562;47.524;12.404;2022-10-04T02:30:22;7.80;;;4.57;;
41881;SDS011;27562;47.524;12.404;2022-10-04T02:32:51;7.85;;;4.72;;
41881;SDS011;27562;47.524;12.404;2022-10-04T02:35:34;5.97;;;4.25;;
41881;SDS011;27562;47.524;12.404;2022-10-04T02:38:09;11.15;;;5.07;;
41881;SDS011;27562;47.524;12.404;2022-10-04T02:44:14;8.13;;;4.72;;
41881;SDS011;27562;47.524;12.404;2022-10-04T02:46:49;10.85;;;5.80;;
41881;SDS011;27562;47.524;12.404;2022-10-04T02:49:44;7.70;;;4.78;;
41881;SDS011;27562;47.524;12.404;2022-10-04T02:57:32;11.93;;;5.35;;
41881;SDS011;27562;47.524;12.404;2022-10-04T03:00:43;9.50;;;4.78;;
41881;SDS011;27562;47.524;12.404;2022-10-04T03:03:09;8.73;;;5.18;;
41881;SDS011;27562;47.524;12.404;2022-10-04T03:05:39;10.90;;;4.85;;
41881;SDS011;27562;47.524;12.404;2022-10-04T03:08:07;8.50;;;4.75;;
41881;SDS011;27562;47.524;12.404;2022-10-04T03:10:32;10.20;;;4.47;;
41881;SDS011;27562;47.524;12.404;2022-10-04T03:13:00;8.07;;;4.07;;
41881;SDS011;27562;47.524;12.404;2022-10-04T03:15:26;7.35;;;4.05;;
41881;SDS011;27562;47.524;12.404;2022-10-04T03:17:53;7.15;;;4.32;;
41881;SDS011;27562;47.524;12.404;2022-10-04T03:20:19;8.50;;;4.30;;
41881;SDS011;27562;47.524;12.404;2022-10-04T03:22:48;12.25;;;4.43;;
41881;SDS011;27562;47.524;12.404;2022-10-04T03:25:19;10.32;;;4.60;;
41881;SDS011;27562;47.524;12.404;2022-10-04T03:27:48;10.73;;;4.47;;
41881;SDS011;27562;47.524;12.404;2022-10-04T03:30:16;14.93;;;5.75;;
41881;SDS011;27562;47.524;12.404;2022-10-04T03:32:46;10.75;;;4.97;;
41881;SDS011;27562;47.524;12.404;2022-10-04T03:35:22;8.98;;;4.50;;
41881;SDS011;27562;47.524;12.404;2022-10-04T03:37:56;8.48;;;5.15;;
41881;SDS011;27562;47.524;12.404;2022-10-04T03:40:26;8.75;;;5.28;;
41881;SDS011;27562;47.524;12.404;2022-10-04T03:42:54;8.80;;;5.10;;
41881;SDS011;27562;47.524;12.404;2022-10-04T03:45:22;7.25;;;4.10;;
41881;SDS011;27562;47.524;12.404;2022-10-04T03:47:48;8.20;;;4.90;;
41881;SDS011;27562;47.524;12.404;2022-10-04T03:50:27;9.27;;;5.13;;
41881;SDS011;27562;47.524;12.404;2022-10-04T03:55:33;9.77;;;4.75;;
41881;SDS011;27562;47.524;12.404;2022-10-04T03:58:02;9.43;;;4.53;;
41881;SDS011;27562;47.524;12.404;2022-10-04T04:00:29;8.75;;;4.32;;
41881;SDS011;27562;47.524;12.404;2022-10-04T04:03:00;11.00;;;5.00;;
41881;SDS011;27562;47.524;12.404;2022-10-04T04:05:38;10.07;;;4.53;;
41881;SDS011;27562;47.524;12.404;2022-10-04T04:10:58;6.88;;;4.15;;
41881;SDS011;27562;47.524;12.404;2022-10-04T04:13:32;9.68;;;5.35;;
41881;SDS011;27562;47.524;12.404;2022-10-04T04:16:08;9.68;;;5.30;;
41881;SDS011;27562;47.524;12.404;2022-10-04T04:18:36;9.25;;;5.57;;
41881;SDS011;27562;47.524;12.404;2022-10-04T04:21:06;7.95;;;5.18;;
41881;SDS011;27562;47.524;12.404;2022-10-04T04:23:46;7.03;;;4.13;;
41881;SDS011;27562;47.524;12.404;2022-10-04T04:28:50;8.13;;;4.85;;
41881;SDS011;27562;47.524;12.404;2022-10-04T04:31:19;14.38;;;5.72;;
41881;SDS011;27562;47.524;12.404;2022-10-04T04:33:55;15.43;;;6.72;;
41881;SDS011;27562;47.524;12.404;2022-10-04T04:36:26;15.07;;;7.15;;
41881;SDS011;27562;47.524;12.404;2022-10-04T04:39:04;12.55;;;6.43;;
41881;SDS011;27562;47.524;12.404;2022-10-04T04:41:49;11.45;;;6.47;;
41881;SDS011;27562;47.524;12.404;2022-10-04T04:44:16;13.05;;;6.03;;
41881;SDS011;27562;47.524;12.404;2022-10-04T04:46:43;10.82;;;5.90;;
41881;SDS011;27562;47.524;12.404;2022-10-04T04:49:10;10.57;;;5.28;;
41881;SDS011;27562;47.524;12.404;2022-10-04T04:51:36;9.63;;;5.07;;
41881;SDS011;27562;47.524;12.404;2022-10-04T04:54:04;7.38;;;4.40;;
41881;SDS011;27562;47.524;12.404;2022-10-04T04:56:31;5.57;;;3.75;;
41881;SDS011;27562;47.524;12.404;2022-10-04T04:58:58;6.10;;;3.50;;
41881;SDS011;27562;47.524;12.404;2022-10-04T05:06:37;6.13;;;3.80;;
41881;SDS011;27562;47.524;12.404;2022-10-04T05:11:53;6.30;;;3.55;;
41881;SDS011;27562;47.524;12.404;2022-10-04T05:14:25;5.22;;;3.25;;
41881;SDS011;27562;47.524;12.404;2022-10-04T05:16:51;5.07;;;2.95;;
41881;SDS011;27562;47.524;12.404;2022-10-04T05:22:08;5.95;;;3.28;;
41881;SDS011;27562;47.524;12.404;2022-10-04T05:24:37;8.85;;;3.15;;
41881;SDS011;27562;47.524;12.404;2022-10-04T05:27:13;6.30;;;3.67;;
41881;SDS011;27562;47.524;12.404;2022-10-04T05:29:56;5.75;;;3.40;;
41881;SDS011;27562;47.524;12.404;2022-10-04T05:33:09;4.63;;;3.03;;
41881;SDS011;27562;47.524;12.404;2022-10-04T05:41:15;5.65;;;3.33;;
41881;SDS011;27562;47.524;12.404;2022-10-04T05:43:58;4.55;;;2.85;;
41881;SDS011;27562;47.524;12.404;2022-10-04T05:46:29;4.53;;;2.88;;
41881;SDS011;27562;47.524;12.404;2022-10-04T05:49:05;6.40;;;3.15;;
41881;SDS011;27562;47.524;12.404;2022-10-04T05:51:46;9.30;;;5.00;;
41881;SDS011;27562;47.524;12.404;2022-10-04T05:54:21;8.02;;;4.53;;
41881;SDS011;27562;47.524;12.404;2022-10-04T06:07:29;10.20;;;5.30;;
41881;SDS011;27562;47.524;12.404;2022-10-04T06:22:00;19.08;;;7.85;;
41881;SDS011;27562;47.524;12.404;2022-10-04T06:24:47;19.20;;;8.57;;
41881;SDS011;27562;47.524;12.404;2022-10-04T06:30:06;18.23;;;8.73;;
41881;SDS011;27562;47.524;12.404;2022-10-04T06:32:46;15.27;;;7.57;;
41881;SDS011;27562;47.524;12.404;2022-10-04T06:43:23;12.57;;;6.03;;
41881;SDS011;27562;47.524;12.404;2022-10-04T06:51:07;11.27;;;5.88;;
41881;SDS011;27562;47.524;12.404;2022-10-04T06:59:23;11.43;;;5.68;;
41881;SDS011;27562;47.524;12.404;2022-10-04T07:02:04;13.45;;;6.28;;
41881;SDS011;27562;47.524;12.404;2022-10-04T07:04:40;10.55;;;5.60;;
41881;SDS011;27562;47.524;12.404;2022-10-04T07:10:02;11.00;;;5.85;;
41881;SDS011;27562;47.524;12.404;2022-10-04T07:12:30;10.02;;;5.32;;
41881;SDS011;27562;47.524;12.404;2022-10-04T07:14:59;9.75;;;5.15;;
41881;SDS011;27562;47.524;12.404;2022-10-04T07:17:29;12.77;;;6.57;;
41881;SDS011;27562;47.524;12.404;2022-10-04T07:20:01;12.18;;;5.85;;
41881;SDS011;27562;47.524;12.404;2022-10-04T07:22:31;13.60;;;6.68;;
41881;SDS011;27562;47.524;12.404;2022-10-04T07:30:35;17.17;;;8.55;;
41881;SDS011;27562;47.524;12.404;2022-10-04T07:33:06;14.60;;;6.47;;
41881;SDS011;27562;47.524;12.404;2022-10-04T07:35:42;11.82;;;6.53;;
41881;SDS011;27562;47.524;12.404;2022-10-04T07:41:03;11.80;;;6.07;;
41881;SDS011;27562;47.524;12.404;2022-10-04T07:44:02;8.65;;;5.63;;
41881;SDS011;27562;47.524;12.404;2022-10-04T07:49:03;9.85;;;5.68;;
41881;SDS011;27562;47.524;12.404;2022-10-04T07:51:31;13.30;;;6.30;;
41881;SDS011;27562;47.524;12.404;2022-10-04T07:56:48;9.40;;;5.97;;
41881;SDS011;27562;47.524;12.404;2022-10-04T08:02:36;7.35;;;4.28;;
41881;SDS011;27562;47.524;12.404;2022-10-04T08:05:31;11.43;;;5.88;;
41881;SDS011;27562;47.524;12.404;2022-10-04T08:11:13;9.13;;;4.57;;
41881;SDS011;27562;47.524;12.404;2022-10-04T08:24:55;5.78;;;3.72;;
41881;SDS011;27562;47.524;12.404;2022-10-04T08:30:48;8.45;;;4.50;;
41881;SDS011;27562;47.524;12.404;2022-10-04T08:36:51;8.13;;;4.00;;
41881;SDS011;27562;47.524;12.404;2022-10-04T09:02:10;5.10;;;2.50;;
41881;SDS011;27562;47.524;12.404;2022-10-04T09:10:49;4.10;;;2.55;;
41881;SDS011;27562;47.524;12.404;2022-10-04T09:30:00;5.88;;;2.30;;
41881;SDS011;27562;47.524;12.404;2022-10-04T09:33:37;4.32;;;1.83;;
41881;SDS011;27562;47.524;12.404;2022-10-04T09:46:50;5.47;;;3.47;;
41881;SDS011;27562;47.524;12.404;2022-10-04T10:05:54;3.60;;;2.08;;
41881;SDS011;27562;47.524;12.404;2022-10-04T10:11:38;10.90;;;2.60;;
41881;SDS011;27562;47.524;12.404;2022-10-04T10:17:14;3.78;;;2.33;;
41881;SDS011;27562;47.524;12.404;2022-10-04T10:28:34;3.65;;;2.30;;
41881;SDS011;27562;47.524;12.404;2022-10-04T10:39:07;4.55;;;2.75;;
41881;SDS011;27562;47.524;12.404;2022-10-04T10:42:04;3.53;;;2.35;;
41881;SDS011;27562;47.524;12.404;2022-10-04T10:56:36;4.35;;;2.25;;
41881;SDS011;27562;47.524;12.404;2022-10-04T11:07:49;4.97;;;1.80;;
41881;SDS011;27562;47.524;12.404;2022-10-04T11:46:54;3.92;;;1.80;;
41881;SDS011;27562;47.524;12.404;2022-10-04T11:57:53;4.18;;;2.10;;
41881;SDS011;27562;47.524;12.404;2022-10-04T12:00:30;4.03;;;1.80;;
41881;SDS011;27562;47.524;12.404;2022-10-04T12:09:04;2.72;;;1.98;;
41881;SDS011;27562;47.524;12.404;2022-10-04T12:12:06;2.58;;;1.67;;
41881;SDS011;27562;47.524;12.404;2022-10-04T12:18:02;3.17;;;1.60;;
41881;SDS011;27562;47.524;12.404;2022-10-04T12:20:41;2.58;;;1.40;;
41881;SDS011;27562;47.524;12.404;2022-10-04T12:28:57;2.78;;;1.80;;
41881;SDS011;27562;47.524;12.404;2022-10-04T12:31:43;6.05;;;1.90;;
41881;SDS011;27562;47.524;12.404;2022-10-04T12:42:17;6.53;;;1.90;;
41881;SDS011;27562;47.524;12.404;2022-10-04T12:45:11;4.07;;;1.90;;
41881;SDS011;27562;47.524;12.404;2022-10-04T13:01:59;3.22;;;1.65;;
41881;SDS011;27562;47.524;12.404;2022-10-04T13:04:47;3.15;;;1.45;;
41881;SDS011;27562;47.524;12.404;2022-10-04T13:17:55;2.87;;;1.63;;
41881;SDS011;27562;47.524;12.404;2022-10-04T13:36:48;4.88;;;2.03;;
41881;SDS011;27562;47.524;12.404;2022-10-04T13:40:01;5.95;;;1.83;;
41881;SDS011;27562;47.524;12.404;2022-10-04T13:53:07;2.88;;;1.50;;
41881;SDS011;27562;47.524;12.404;2022-10-04T13:58:56;4.22;;;1.55;;
41881;SDS011;27562;47.524;12.404;2022-10-04T14:47:40;2.15;;;1.33;;
41881;SDS011;27562;47.524;12.404;2022-10-04T14:53:52;5.32;;;1.20;;
41881;SDS011;27562;47.524;12.404;2022-10-04T15:01:37;3.03;;;1.08;;
41881;SDS011;27562;47.524;12.404;2022-10-04T15:07:02;2.72;;;1.30;;
41881;SDS011;27562;47.524;12.404;2022-10-04T15:31:49;4.70;;;1.52;;
41881;SDS011;27562;47.524;12.404;2022-10-04T15:34:30;4.30;;;1.60;;
41881;SDS011;27562;47.524;12.404;2022-10-04T15:45:30;3.00;;;1.55;;
41881;SDS011;27562;47.524;12.404;2022-10-04T15:56:22;5.10;;;3.40;;
41881;SDS011;27562;47.524;12.404;2022-10-04T16:01:55;5.78;;;3.25;;
41881;SDS011;27562;47.524;12.404;2022-10-04T16:07:35;5.15;;;2.90;;
41881;SDS011;27562;47.524;12.404;2022-10-04T16:21:41;3.35;;;2.28;;
41881;SDS011;27562;47.524;12.404;2022-10-04T16:32:00;5.85;;;4.60;;
41881;SDS011;27562;47.524;12.404;2022-10-04T16:34:47;7.93;;;4.53;;
41881;SDS011;27562;47.524;12.404;2022-10-04T16:45:29;3.65;;;2.00;;
41881;SDS011;27562;47.524;12.404;2022-10-04T16:47:56;2.42;;;1.55;;
41881;SDS011;27562;47.524;12.404;2022-10-04T16:53:25;2.83;;;1.55;;
41881;SDS011;27562;47.524;12.404;2022-10-04T16:55:57;5.13;;;2.10;;
41881;SDS011;27562;47.524;12.404;2022-10-04T16:58:50;5.05;;;3.35;;
41881;SDS011;27562;47.524;12.404;2022-10-04T17:01:28;9.27;;;3.35;;
41881;SDS011;27562;47.524;12.404;2022-10-04T17:04:23;5.95;;;2.70;;
41881;SDS011;27562;47.524;12.404;2022-10-04T17:06:57;4.07;;;2.40;;
41881;SDS011;27562;47.524;12.404;2022-10-04T17:12:26;4.32;;;2.03;;
41881;SDS011;27562;47.524;12.404;2022-10-04T17:15:22;3.63;;;1.52;;
41881;SDS011;27562;47.524;12.404;2022-10-04T17:36:52;3.78;;;2.10;;
41881;SDS011;27562;47.524;12.404;2022-10-04T17:44:45;4.28;;;1.45;;
41881;SDS011;27562;47.524;12.404;2022-10-04T17:47:35;3.38;;;1.42;;
41881;SDS011;27562;47.524;12.404;2022-10-04T17:53:50;3.30;;;1.85;;
41881;SDS011;27562;47.524;12.404;2022-10-04T17:56:43;4.20;;;1.65;;
41881;SDS011;27562;47.524;12.404;2022-10-04T17:59:14;5.63;;;1.70;;
41881;SDS011;27562;47.524;12.404;2022-10-04T18:01:45;3.60;;;2.28;;
41881;SDS011;27562;47.524;12.404;2022-10-04T18:04:20;5.10;;;2.28;;
41881;SDS011;27562;47.524;12.404;2022-10-04T18:09:50;4.18;;;2.28;;
41881;SDS011;27562;47.524;12.404;2022-10-04T18:17:50;3.97;;;1.83;;
41881;SDS011;27562;47.524;12.404;2022-10-04T18:20:34;3.20;;;1.90;;
41881;SDS011;27562;47.524;12.404;2022-10-04T18:23:17;4.75;;;2.30;;
41881;SDS011;27562;47.524;12.404;2022-10-04T18:25:56;2.80;;;1.95;;
41881;SDS011;27562;47.524;12.404;2022-10-04T18:28:25;3.83;;;2.17;;
41881;SDS011;27562;47.524;12.404;2022-10-04T18:33:29;3.05;;;2.00;;
41881;SDS011;27562;47.524;12.404;2022-10-04T18:36:13;5.07;;;2.00;;
41881;SDS011;27562;47.524;12.404;2022-10-04T18:38:42;4.38;;;2.90;;
41881;SDS011;27562;47.524;12.404;2022-10-04T18:41:20;7.85;;;4.13;;
41881;SDS011;27562;47.524;12.404;2022-10-04T18:46:36;8.82;;;5.72;;
41881;SDS011;27562;47.524;12.404;2022-10-04T18:49:15;10.30;;;6.18;;
41881;SDS011;27562;47.524;12.404;2022-10-04T18:57:36;9.87;;;6.33;;
41881;SDS011;27562;47.524;12.404;2022-10-04T19:00:24;8.68;;;5.65;;
41881;SDS011;27562;47.524;12.404;2022-10-04T19:03:28;7.50;;;4.35;;
41881;SDS011;27562;47.524;12.404;2022-10-04T19:06:18;5.68;;;3.85;;
41881;SDS011;27562;47.524;12.404;2022-10-04T19:09:13;6.55;;;4.38;;
41881;SDS011;27562;47.524;12.404;2022-10-04T19:11:51;5.28;;;2.65;;
41881;SDS011;27562;47.524;12.404;2022-10-04T19:14:34;3.88;;;2.60;;
41881;SDS011;27562;47.524;12.404;2022-10-04T19:17:25;4.70;;;2.30;;
41881;SDS011;27562;47.524;12.404;2022-10-04T19:25:54;6.88;;;3.00;;
41881;SDS011;27562;47.524;12.404;2022-10-04T19:28:35;6.10;;;3.00;;
41881;SDS011;27562;47.524;12.404;2022-10-04T19:33:48;6.40;;;2.60;;
41881;SDS011;27562;47.524;12.404;2022-10-04T19:41:53;4.03;;;2.28;;
41881;SDS011;27562;47.524;12.404;2022-10-04T19:44:28;5.05;;;2.45;;
41881;SDS011;27562;47.524;12.404;2022-10-04T19:52:40;3.30;;;2.15;;
41881;SDS011;27562;47.524;12.404;2022-10-04T20:00:44;5.05;;;1.60;;
41881;SDS011;27562;47.524;12.404;2022-10-04T20:03:10;2.90;;;1.55;;
41881;SDS011;27562;47.524;12.404;2022-10-04T20:05:44;2.78;;;1.70;;
41881;SDS011;27562;47.524;12.404;2022-10-04T20:08:13;5.18;;;1.80;;
41881;SDS011;27562;47.524;12.404;2022-10-04T20:10:40;2.97;;;1.67;;
41881;SDS011;27562;47.524;12.404;2022-10-04T20:13:20;3.05;;;1.75;;
41881;SDS011;27562;47.524;12.404;2022-10-04T20:15:52;2.92;;;1.63;;
41881;SDS011;27562;47.524;12.404;2022-10-04T20:26:03;4.93;;;2.63;;
41881;SDS011;27562;47.524;12.404;2022-10-04T20:28:35;3.05;;;2.03;;
41881;SDS011;27562;47.524;12.404;2022-10-04T20:31:50;3.40;;;2.05;;
41881;SDS011;27562;47.524;12.404;2022-10-04T20:33:53;6.50;;;2.83;;
41881;SDS011;27562;47.524;12.404;2022-10-04T20:38:49;10.70;;;4.95;;
41881;SDS011;27562;47.524;12.404;2022-10-04T20:43:54;6.85;;;4.07;;
41881;SDS011;27562;47.524;12.404;2022-10-04T20:46:22;4.88;;;3.08;;
41881;SDS011;27562;47.524;12.404;2022-10-04T20:48:49;6.88;;;4.07;;
41881;SDS011;27562;47.524;12.404;2022-10-04T20:51:17;6.38;;;3.85;;
41881;SDS011;27562;47.524;12.404;2022-10-04T20:53:44;6.72;;;3.72;;
41881;SDS011;27562;47.524;12.404;2022-10-04T20:56:21;6.78;;;3.80;;
41881;SDS011;27562;47.524;12.404;2022-10-04T20:58:58;6.60;;;3.10;;
41881;SDS011;27562;47.524;12.404;2022-10-04T21:01:29;4.20;;;3.05;;
41881;SDS011;27562;47.524;12.404;2022-10-04T21:04:44;3.90;;;2.65;;
41881;SDS011;27562;47.524;12.404;2022-10-04T21:06:58;4.07;;;2.50;;
41881;SDS011;27562;47.524;12.404;2022-10-04T21:09:27;4.28;;;2.55;;
41881;SDS011;27562;47.524;12.404;2022-10-04T21:11:54;5.82;;;1.95;;
41881;SDS011;27562;47.524;12.404;2022-10-04T21:16:48;4.82;;;2.30;;
41881;SDS011;27562;47.524;12.404;2022-10-04T21:21:59;4.32;;;2.63;;
41881;SDS011;27562;47.524;12.404;2022-10-04T21:24:33;4.75;;;1.88;;
41881;SDS011;27562;47.524;12.404;2022-10-04T21:27:00;4.68;;;2.30;;
41881;SDS011;27562;47.524;12.404;2022-10-04T21:29:26;3.78;;;1.92;;
41881;SDS011;27562;47.524;12.404;2022-10-04T21:31:54;4.22;;;2.45;;
41881;SDS011;27562;47.524;12.404;2022-10-04T21:34:23;7.80;;;2.50;;
41881;SDS011;27562;47.524;12.404;2022-10-04T21:36:49;3.10;;;2.05;;
41881;SDS011;27562;47.524;12.404;2022-10-04T21:39:14;3.70;;;2.30;;
41881;SDS011;27562;47.524;12.404;2022-10-04T21:41:40;5.43;;;2.20;;
41881;SDS011;27562;47.524;12.404;2022-10-04T21:44:06;3.28;;;1.92;;
41881;SDS011;27562;47.524;12.404;2022-10-04T21:46:32;3.78;;;2.10;;
41881;SDS011;27562;47.524;12.404;2022-10-04T21:48:58;5.80;;;2.00;;
41881;SDS011;27562;47.524;12.404;2022-10-04T21:51:24;3.22;;;2.05;;
41881;SDS011;27562;47.524;12.404;2022-10-04T21:53:50;4.00;;;2.03;;
41881;SDS011;27562;47.524;12.404;2022-10-04T21:56:16;3.50;;;2.10;;
41881;SDS011;27562;47.524;12.404;2022-10-04T21:58:41;3.80;;;1.92;;
41881;SDS011;27562;47.524;12.404;2022-10-04T22:01:07;6.38;;;1.70;;
41881;SDS011;27562;47.524;12.404;2022-10-04T22:03:33;4.97;;;1.98;;
41881;SDS011;27562;47.524;12.404;2022-10-04T22:05:59;6.07;;;2.08;;
41881;SDS011;27562;47.524;12.404;2022-10-04T22:08:24;3.95;;;1.85;;
41881;SDS011;27562;47.524;12.404;2022-10-04T22:10:50;6.78;;;2.75;;
41881;SDS011;27562;47.524;12.404;2022-10-04T22:13:15;8.85;;;2.95;;
41881;SDS011;27562;47.524;12.404;2022-10-04T22:15:41;5.07;;;2.00;;
41881;SDS011;27562;47.524;12.404;2022-10-04T22:18:07;4.18;;;1.70;;
41881;SDS011;27562;47.524;12.404;2022-10-04T22:20:33;2.95;;;1.67;;
41881;SDS011;27562;47.524;12.404;2022-10-04T22:22:59;3.63;;;1.65;;
41881;SDS011;27562;47.524;12.404;2022-10-04T22:25:27;4.45;;;1.80;;
41881;SDS011;27562;47.524;12.404;2022-10-04T22:27:52;6.30;;;2.28;;
41881;SDS011;27562;47.524;12.404;2022-10-04T22:32:45;22.92;;;6.18;;
41881;SDS011;27562;47.524;12.404;2022-10-04T22:35:15;30.08;;;6.85;;
41881;SDS011;27562;47.524;12.404;2022-10-04T22:37:42;28.05;;;6.43;;
41881;SDS011;27562;47.524;12.404;2022-10-04T22:40:19;29.90;;;6.63;;
41881;SDS011;27562;47.524;12.404;2022-10-04T22:42:50;24.65;;;5.60;;
41881;SDS011;27562;47.524;12.404;2022-10-04T22:45:19;12.40;;;2.78;;
41881;SDS011;27562;47.524;12.404;2022-10-04T22:47:49;7.35;;;2.30;;
41881;SDS011;27562;47.524;12.404;2022-10-04T22:50:20;5.00;;;1.70;;
41881;SDS011;27562;47.524;12.404;2022-10-04T22:52:51;3.30;;;1.70;;
41881;SDS011;27562;47.524;12.404;2022-10-04T22:55:17;3.22;;;1.90;;
41881;SDS011;27562;47.524;12.404;2022-10-04T22:57:43;2.83;;;1.70;;
41881;SDS011;27562;47.524;12.404;2022-10-04T23:00:09;3.33;;;1.70;;
41881;SDS011;27562;47.524;12.404;2022-10-04T23:02:36;4.85;;;1.88;;
41881;SDS011;27562;47.524;12.404;2022-10-04T23:05:10;3.60;;;1.60;;
41881;SDS011;27562;47.524;12.404;2022-10-04T23:07:37;11.35;;;2.45;;
41881;SDS011;27562;47.524;12.404;2022-10-04T23:10:02;10.63;;;4.10;;
41881;SDS011;27562;47.524;12.404;2022-10-04T23:12:28;11.30;;;3.38;;
41881;SDS011;27562;47.524;12.404;2022-10-04T23:14:54;4.35;;;2.10;;
41881;SDS011;27562;47.524;12.404;2022-10-04T23:17:27;4.63;;;1.70;;
41881;SDS011;27562;47.524;12.404;2022-10-04T23:19:56;3.70;;;1.60;;
41881;SDS011;27562;47.524;12.404;2022-10-04T23:22:28;3.42;;;1.70;;
41881;SDS011;27562;47.524;12.404;2022-10-04T23:24:56;3.15;;;1.38;;
41881;SDS011;27562;47.524;12.404;2022-10-04T23:27:21;3.75;;;1.42;;
41881;SDS011;27562;47.524;12.404;2022-10-04T23:29:48;4.00;;;1.50;;
41881;SDS011;27562;47.524;12.404;2022-10-04T23:32:35;2.03;;;1.20;;
41881;SDS011;27562;47.524;12.404;2022-10-04T23:35:01;2.95;;;1.40;;
41881;SDS011;27562;47.524;12.404;2022-10-04T23:37:29;3.85;;;1.40;;
41881;SDS011;27562;47.524;12.404;2022-10-04T23:39:56;4.15;;;1.33;;
41881;SDS011;27562;47.524;12.404;2022-10-04T23:42:26;4.57;;;1.58;;
41881;SDS011;27562;47.524;12.404;2022-10-04T23:44:56;4.88;;;1.52;;
41881;SDS011;27562;47.524;12.404;2022-10-04T23:47:24;4.70;;;1.30;;
41881;SDS011;27562;47.524;12.404;2022-10-04T23:49:57;4.53;;;1.70;;
41881;SDS011;27562;47.524;12.404;2022-10-04T23:52:35;4.25;;;1.60;;
41881;SDS011;27562;47.524;12.404;2022-10-04T23:55:09;4.07;;;2.00;;
41881;SDS011;27562;47.524;12.404;2022-10-04T23:57:51;3.65;;;2.05;;
